Time;durP1;ratioP1;P1;durP2;ratioP2;P2;SDS_P1;SDS_P2;PMS_P1;PMS_P2;Temp;Humidity;BMP_temperature;BMP_pressure;BME280_temperature;BME280_humidity;BME280_pressure;Samples;Min_cycle;Max_cycle;Signal;HPM_P1;HPM_P2
2022/11/29 00:00:07;;;;;;;;;;;;;;;5.02;70.14;101588.50;5109916;27;19920;-55
2022/11/29 00:02:33;;;;;;;;;;;;;;;5.02;70.24;101590.25;5114210;27;19935;-57
2022/11/29 00:04:58;;;;;;;;;;;;;;;4.98;70.27;101586.00;5114291;27;20378;-56
2022/11/29 00:07:23;;;;;;;;;;;;;;;5.01;70.27;101592.00;5112155;27;19992;-55
2022/11/29 00:09:48;;;;;;;;;;;;;;;4.97;70.60;101581.66;5106574;28;19962;-58
2022/11/29 00:12:14;;;;;;;;;;;;;;;4.97;70.62;101590.34;5106174;28;20289;-56
2022/11/29 00:14:40;;;;;;;;;;;;;;;4.99;70.29;101590.31;5110811;27;19955;-55
2022/11/29 00:17:05;;;;;;;;;;;;;;;4.97;70.36;101592.09;5108784;28;20263;-56
2022/11/29 00:19:31;;;;;;;;;;;;;;;4.96;70.57;101598.19;5112264;27;19924;-55
2022/11/29 00:21:57;;;;;;;;;;;;;;;5.00;70.68;101590.28;5100307;28;19924;-57
2022/11/29 00:24:22;;;;;;;;;;;;;;;5.01;70.31;101599.81;5109494;27;20072;-55
2022/11/29 00:26:47;;;;;;;;;;;;;;;5.02;70.36;101600.69;5104981;28;20381;-55
2022/11/29 00:29:13;;;;;;;;;;;;;;;5.03;70.29;101598.03;5108611;27;20412;-55
2022/11/29 00:31:39;;;;;;;;;;;;;;;5.05;70.54;101605.84;5109134;27;19927;-55
2022/11/29 00:34:05;;;;;;;;;;;;;;;5.08;70.42;101595.34;5085955;28;19920;-56
2022/11/29 00:36:32;;;;;;;;;;;;;;;5.07;70.33;101598.81;5111395;27;20508;-56
2022/11/29 00:38:58;;;;;;;;;;;;;;;5.09;70.56;101601.41;5109848;27;20039;-56
2022/11/29 00:41:23;;;;;;;;;;;;;;;5.11;70.30;101590.06;5107356;28;19942;-56
2022/11/29 00:43:49;;;;;;;;;;;;;;;5.13;70.30;101592.66;5104526;27;19916;-56
2022/11/29 00:46:14;;;;;;;;;;;;;;;5.12;70.30;101581.34;5109405;27;19919;-56
2022/11/29 00:48:40;;;;;;;;;;;;;;;5.17;70.23;101589.94;5110223;27;20363;-56
2022/11/29 00:51:05;;;;;;;;;;;;;;;5.19;70.15;101582.06;5104882;27;19923;-56
2022/11/29 00:53:31;;;;;;;;;;;;;;;5.21;70.28;101585.50;5105776;27;19939;-55
2022/11/29 00:55:56;;;;;;;;;;;;;;;5.24;69.97;101582.84;5111550;27;19923;-56
2022/11/29 00:58:22;;;;;;;;;;;;;;;5.22;70.31;101587.22;5109531;27;20002;-55
2022/11/29 01:00:47;;;;;;;;;;;;;;;5.24;70.07;101581.94;5108716;27;19957;-56
2022/11/29 01:03:13;;;;;;;;;;;;;;;5.24;69.99;101582.84;5112949;27;19911;-56
2022/11/29 01:05:39;;;;;;;;;;;;;;;5.23;70.46;101572.41;5107452;28;19919;-55
2022/11/29 01:08:04;;;;;;;;;;;;;;;5.26;70.04;101582.78;5107669;27;19935;-58
2022/11/29 01:10:29;;;;;;;;;;;;;;;5.27;69.94;101580.16;5108060;28;20371;-56
2022/11/29 01:12:55;;;;;;;;;;;;;;;5.29;70.03;101580.13;5112981;27;20318;-58
2022/11/29 01:15:21;;;;;;;;;;;;;;;5.28;70.12;101581.00;5108664;27;19920;-56
2022/11/29 01:17:47;;;;;;;;;;;;;;;5.26;70.24;101585.41;5112368;27;19931;-55
2022/11/29 01:20:13;;;;;;;;;;;;;;;5.27;70.24;101584.50;5108290;28;19922;-57
2022/11/29 01:22:39;;;;;;;;;;;;;;;5.25;70.18;101584.56;5107800;27;19919;-55
2022/11/29 01:25:06;;;;;;;;;;;;;;;5.26;70.52;101581.06;5104357;27;20010;-59
2022/11/29 01:27:31;;;;;;;;;;;;;;;5.28;70.17;101581.00;5103249;28;19923;-58
2022/11/29 01:29:56;;;;;;;;;;;;;;;5.25;70.13;101586.28;5091049;28;20297;-55
2022/11/29 01:32:22;;;;;;;;;;;;;;;5.26;70.40;101588.00;5108711;28;19995;-55
2022/11/29 01:34:47;;;;;;;;;;;;;;;5.27;70.06;101589.72;5101896;27;20305;-57
2022/11/29 01:37:12;;;;;;;;;;;;;;;5.26;70.24;101582.78;5104264;27;19938;-55
2022/11/29 01:39:38;;;;;;;;;;;;;;;5.29;70.49;101585.34;5108323;28;20064;-55
2022/11/29 01:42:03;;;;;;;;;;;;;;;5.31;69.98;101594.00;5096371;27;19924;-55
2022/11/29 01:44:29;;;;;;;;;;;;;;;5.31;70.09;101580.94;5109627;27;19923;-55
2022/11/29 01:46:55;;;;;;;;;;;;;;;5.31;70.36;101586.16;5108854;27;19923;-56
2022/11/29 01:49:43;;;;;;;;;;;;;;;5.33;70.19;101589.59;5108238;27;19923;-56
2022/11/29 01:52:30;;;;;;;;;;;;;;;5.32;70.04;101587.88;5094227;27;19929;-55
2022/11/29 01:54:57;;;;;;;;;;;;;;;5.30;70.26;101590.50;5103570;28;20034;-55
2022/11/29 01:57:23;;;;;;;;;;;;;;;5.31;70.32;101586.16;5100837;28;19938;-56
2022/11/29 01:59:49;;;;;;;;;;;;;;;5.32;70.20;101591.34;5107805;28;19919;-57
2022/11/29 02:02:24;;;;;;;;;;;;;;;5.33;69.97;101587.00;5110321;28;19915;-55
2022/11/29 02:04:49;;;;;;;;;;;;;;;5.33;70.23;101584.38;5103506;28;19993;-55
2022/11/29 02:07:15;;;;;;;;;;;;;;;5.34;69.99;101586.94;5108847;27;19969;-54
2022/11/29 02:09:40;;;;;;;;;;;;;;;5.29;70.08;101582.72;5103250;27;19916;-55
2022/11/29 02:12:08;;;;;;;;;;;;;;;5.30;70.37;101581.84;5109559;28;20294;-55
2022/11/29 02:14:43;;;;;;;;;;;;;;;5.28;70.21;101583.63;5107715;28;19938;-55
2022/11/29 02:17:23;;;;;;;;;;;;;;;5.27;70.22;101584.50;5106167;28;19939;-55
2022/11/29 02:20:07;;;;;;;;;;;;;;;5.29;70.18;101582.72;5107893;28;19973;-55
2022/11/29 02:22:51;;;;;;;;;;;;;;;5.29;70.57;101582.72;5110092;27;20293;-55
2022/11/29 02:25:38;;;;;;;;;;;;;;;5.31;69.98;101580.94;5102606;27;19983;-55
2022/11/29 02:28:13;;;;;;;;;;;;;;;5.29;70.11;101577.50;5105177;28;19922;-56
2022/11/29 02:31:00;;;;;;;;;;;;;;;5.33;70.00;101581.78;5108866;28;19920;-55
2022/11/29 02:33:35;;;;;;;;;;;;;;;5.29;70.27;101580.13;5105205;27;19999;-55
2022/11/29 02:36:10;;;;;;;;;;;;;;;5.30;70.28;101584.44;5091944;27;19944;-56
2022/11/29 02:38:35;;;;;;;;;;;;;;;5.25;70.33;101581.94;5107825;28;19919;-55
2022/11/29 02:41:00;;;;;;;;;;;;;;;5.20;70.49;101575.94;5104459;27;19923;-59
2022/11/29 02:43:35;;;;;;;;;;;;;;;5.21;70.43;101584.66;5100890;28;19916;-56
2022/11/29 02:46:03;;;;;;;;;;;;;;;5.17;70.53;101582.09;5104781;28;19922;-56
2022/11/29 02:48:46;;;;;;;;;;;;;;;5.19;70.19;101587.28;5098893;28;19930;-56
2022/11/29 02:51:38;;;;;;;;;;;;;;;5.15;70.57;101583.88;5106180;28;20022;-55
2022/11/29 02:54:03;;;;;;;;;;;;;;;5.12;70.82;101591.78;5106152;28;20330;-57
2022/11/29 02:56:28;;;;;;;;;;;;;;;5.12;70.56;101591.78;5105699;28;20411;-59
2022/11/29 02:59:12;;;;;;;;;;;;;;;5.10;70.88;101590.94;5106239;28;19935;-55
2022/11/29 03:01:57;;;;;;;;;;;;;;;5.08;70.71;101595.34;5087128;28;19916;-55
2022/11/29 03:04:39;;;;;;;;;;;;;;;5.11;70.84;101595.28;5101392;28;20298;-56
2022/11/29 03:07:11;;;;;;;;;;;;;;;5.07;70.89;101597.97;5102303;28;19927;-59
2022/11/29 03:09:36;;;;;;;;;;;;;;;5.07;70.85;101593.59;5101494;28;19924;-56
2022/11/29 03:12:12;;;;;;;;;;;;;;;5.04;70.78;101594.53;5083145;28;19916;-57
2022/11/29 03:14:37;;;;;;;;;;;;;;;5.04;71.07;101594.53;5098150;28;19969;-57
2022/11/29 03:17:18;;;;;;;;;;;;;;;5.03;70.91;101597.19;5103832;28;19916;-58
2022/11/29 03:20:04;;;;;;;;;;;;;;;5.05;71.08;101603.25;5099812;28;19957;-57
2022/11/29 03:22:46;;;;;;;;;;;;;;;5.01;70.97;101609.41;5099890;28;19916;-55
2022/11/29 03:25:17;;;;;;;;;;;;;;;5.06;70.62;101602.34;5101725;28;19983;-55
2022/11/29 03:27:46;;;;;;;;;;;;;;;5.03;70.90;101597.19;5102591;28;19919;-55
2022/11/29 03:30:13;;;;;;;;;;;;;;;5.05;70.56;101595.41;5103399;28;19920;-58
2022/11/29 03:32:38;;;;;;;;;;;;;;;5.07;70.91;101603.19;5107248;28;19919;-55
2022/11/29 03:35:16;;;;;;;;;;;;;;;5.05;70.53;101598.03;5102422;28;20049;-55
2022/11/29 03:37:47;;;;;;;;;;;;;;;5.03;70.55;101607.63;5106525;28;20370;-55
2022/11/29 03:40:14;;;;;;;;;;;;;;;5.06;70.88;101607.56;5101064;28;20026;-57
2022/11/29 03:42:58;;;;;;;;;;;;;;;5.02;70.50;101616.34;5103336;28;19950;-55
2022/11/29 03:45:35;;;;;;;;;;;;;;;4.94;70.73;101613.88;5087522;28;19922;-55
2022/11/29 03:48:06;;;;;;;;;;;;;;;4.92;70.70;101615.66;5103416;28;19916;-57
2022/11/29 03:50:35;;;;;;;;;;;;;;;4.90;71.10;101622.66;5108408;27;19920;-55
2022/11/29 03:53:13;;;;;;;;;;;;;;;4.92;71.04;101609.56;5115234;27;20294;-57
2022/11/29 03:55:47;;;;;;;;;;;;;;;4.96;71.05;101626.88;5104493;28;19916;-56
2022/11/29 03:58:13;;;;;;;;;;;;;;;4.97;70.62;101618.19;5094765;27;19926;-56
2022/11/29 04:00:58;;;;;;;;;;;;;;;5.01;70.97;101623.28;5107880;28;19916;-55
2022/11/29 04:03:51;;;;;;;;;;;;;;;5.01;70.47;101618.06;5098691;28;19915;-55
2022/11/29 04:06:26;;;;;;;;;;;;;;;5.04;70.73;101619.78;5112191;27;19919;-55
2022/11/29 04:08:54;;;;;;;;;;;;;;;5.01;70.69;101620.69;5111186;28;19916;-56
2022/11/29 04:11:20;;;;;;;;;;;;;;;5.05;70.53;101626.72;5107731;27;19920;-55
2022/11/29 04:13:45;;;;;;;;;;;;;;;5.05;70.80;101631.94;5103563;28;19920;-54
2022/11/29 04:16:22;;;;;;;;;;;;;;;5.04;70.64;101635.44;5091605;28;20444;-55
2022/11/29 04:19:06;;;;;;;;;;;;;;;5.04;70.40;101635.44;5107623;28;20303;-55
2022/11/29 04:21:54;;;;;;;;;;;;;;;5.03;70.42;101641.53;5111382;27;19957;-56
2022/11/29 04:24:31;;;;;;;;;;;;;;;5.01;70.53;101638.09;5089826;28;19931;-55
2022/11/29 04:27:12;;;;;;;;;;;;;;;5.03;70.45;101633.72;5108195;27;19920;-55
2022/11/29 04:29:53;;;;;;;;;;;;;;;5.00;70.75;101639.84;5108312;27;20008;-57
2022/11/29 04:32:18;;;;;;;;;;;;;;;4.98;70.68;101640.75;5098077;28;20291;-56
2022/11/29 04:34:56;;;;;;;;;;;;;;;4.99;70.94;101645.09;5111435;27;19918;-54
2022/11/29 04:37:40;;;;;;;;;;;;;;;4.98;70.98;101640.75;5105102;28;19950;-55
2022/11/29 04:40:11;;;;;;;;;;;;;;;4.99;70.96;101647.69;5105764;28;19968;-53
2022/11/29 04:42:56;;;;;;;;;;;;;;;4.97;70.94;101645.13;5110334;27;19967;-54
2022/11/29 04:45:40;;;;;;;;;;;;;;;5.00;70.61;101644.22;5107979;27;19915;-56
2022/11/29 04:48:18;;;;;;;;;;;;;;;4.99;70.69;101645.09;5103921;28;19944;-55
2022/11/29 04:50:46;;;;;;;;;;;;;;;5.00;70.78;101650.28;5107828;27;19959;-54
2022/11/29 04:53:20;;;;;;;;;;;;;;;5.01;70.83;101653.75;5108383;27;20014;-57
2022/11/29 04:55:55;;;;;;;;;;;;;;;4.96;70.78;101643.41;5104792;27;19993;-55
2022/11/29 04:58:36;;;;;;;;;;;;;;;4.95;70.69;101649.53;5111358;27;20417;-55
2022/11/29 05:01:11;;;;;;;;;;;;;;;4.95;70.75;101646.91;5107573;28;19976;-57
2022/11/29 05:03:43;;;;;;;;;;;;;;;4.99;70.84;101653.75;5108351;27;20352;-55
2022/11/29 05:06:19;;;;;;;;;;;;;;;5.03;70.42;101654.59;5110579;27;19927;-55
2022/11/29 05:08:53;;;;;;;;;;;;;;;5.06;70.30;101659.75;5111906;27;19947;-54
2022/11/29 05:11:18;;;;;;;;;;;;;;;5.04;70.49;101661.53;5108857;27;20387;-54
2022/11/29 05:13:55;;;;;;;;;;;;;;;5.03;70.26;101668.47;5117465;27;19920;-55
2022/11/29 05:16:20;;;;;;;;;;;;;;;5.00;70.37;101667.69;5107419;27;19923;-54
2022/11/29 05:19:04;;;;;;;;;;;;;;;4.99;70.68;101668.56;5109323;27;19920;-56
2022/11/29 05:21:46;;;;;;;;;;;;;;;4.97;70.76;101672.94;5096235;27;19924;-55
2022/11/29 05:24:17;;;;;;;;;;;;;;;4.92;70.96;101674.78;5098961;28;19955;-55
2022/11/29 05:26:49;;;;;;;;;;;;;;;4.96;70.46;101684.28;5103294;28;19960;-53
2022/11/29 05:29:14;;;;;;;;;;;;;;;4.92;70.89;101677.38;5101329;27;20447;-55
2022/11/29 05:31:42;;;;;;;;;;;;;;;4.96;71.16;101679.06;5092120;27;19927;-54
2022/11/29 05:34:19;;;;;;;;;;;;;;;4.99;71.03;101684.22;5107786;27;19941;-56
2022/11/29 05:37:03;;;;;;;;;;;;;;;4.97;70.85;101686.00;5109399;27;19920;-54
2022/11/29 05:39:31;;;;;;;;;;;;;;;4.99;71.02;101685.06;5101186;28;20324;-56
2022/11/29 05:42:15;;;;;;;;;;;;;;;5.04;70.71;101692.81;5098768;27;20010;-57
2022/11/29 05:44:44;;;;;;;;;;;;;;;5.05;70.45;101699.78;5112105;27;20370;-55
2022/11/29 05:47:13;;;;;;;;;;;;;;;5.06;70.81;101700.63;5104965;27;19915;-54
2022/11/29 05:49:59;;;;;;;;;;;;;;;5.08;71.03;101699.69;5103536;27;20390;-55
2022/11/29 05:52:41;;;;;;;;;;;;;;;5.14;70.78;101696.97;5101753;27;19920;-54
2022/11/29 05:55:12;;;;;;;;;;;;;;;5.18;70.24;101706.47;5097315;27;19923;-60
2022/11/29 05:57:46;;;;;;;;;;;;;;;5.19;70.21;101709.91;5099879;28;19920;-56
2022/11/29 06:00:13;;;;;;;;;;;;;;;5.15;70.32;101708.25;5100457;28;19924;-54
2022/11/29 06:02:38;;;;;;;;;;;;;;;5.13;70.31;101721.34;5097640;28;19920;-54
2022/11/29 06:05:22;;;;;;;;;;;;;;;5.09;69.98;101713.59;5104440;28;19916;-55
2022/11/29 06:07:54;;;;;;;;;;;;;;;5.10;70.15;101715.31;5107121;28;20401;-56
2022/11/29 06:10:25;;;;;;;;;;;;;;;5.10;70.28;101718.78;5106567;27;20732;-54
2022/11/29 06:13:06;;;;;;;;;;;;;;;5.09;70.40;101719.66;5101035;28;19917;-54
2022/11/29 06:15:31;;;;;;;;;;;;;;;5.12;70.41;101722.22;5101541;28;20374;-54
2022/11/29 06:17:59;;;;;;;;;;;;;;;5.13;70.03;101723.94;5089853;28;19933;-54
2022/11/29 06:20:43;;;;;;;;;;;;;;;5.12;70.01;101724.84;5106018;28;20406;-54
2022/11/29 06:23:28;;;;;;;;;;;;;;;5.07;70.43;101721.44;5102865;28;20387;-55
2022/11/29 06:25:56;;;;;;;;;;;;;;;5.06;70.38;101724.09;5104757;28;19912;-54
2022/11/29 06:28:21;;;;;;;;;;;;;;;5.07;70.52;101729.28;5107120;28;19919;-54
2022/11/29 06:31:01;;;;;;;;;;;;;;;4.98;70.51;101740.75;5102845;28;21335;-55
2022/11/29 06:33:31;;;;;;;;;;;;;;;5.05;70.27;101741.50;5103522;28;20290;-54
2022/11/29 06:36:08;;;;;;;;;;;;;;;5.07;70.07;101738.84;5108573;28;19955;-56
2022/11/29 06:38:34;;;;;;;;;;;;;;;5.09;70.16;101743.16;5109974;28;19930;-54
2022/11/29 06:40:59;;;;;;;;;;;;;;;5.12;70.01;101740.50;5103564;28;20014;-55
2022/11/29 06:43:25;;;;;;;;;;;;;;;5.13;69.70;101738.75;5104562;28;19917;-56
2022/11/29 06:46:04;;;;;;;;;;;;;;;5.14;69.84;101751.75;5104452;28;21201;-54
2022/11/29 06:48:35;;;;;;;;;;;;;;;5.13;69.76;101751.81;5106263;28;20523;-55
2022/11/29 06:51:12;;;;;;;;;;;;;;;5.12;70.21;101756.16;5108002;28;19926;-54
2022/11/29 06:53:40;;;;;;;;;;;;;;;5.11;69.63;101745.75;5104991;28;19923;-57
2022/11/29 06:56:19;;;;;;;;;;;;;;;5.14;69.62;101756.13;5104538;28;19924;-57
2022/11/29 06:58:51;;;;;;;;;;;;;;;5.16;69.62;101759.53;5101897;28;19935;-56
2022/11/29 07:01:27;;;;;;;;;;;;;;;5.15;69.32;101768.25;5099614;28;19961;-55
2022/11/29 07:03:52;;;;;;;;;;;;;;;5.12;69.85;101763.97;5108815;28;19918;-55
2022/11/29 07:06:20;;;;;;;;;;;;;;;5.10;70.10;101767.50;5106405;28;19919;-55
2022/11/29 07:08:48;;;;;;;;;;;;;;;5.10;69.59;101760.53;5105424;28;19920;-56
2022/11/29 07:11:13;;;;;;;;;;;;;;;5.09;69.65;101774.47;5106266;28;20341;-55
2022/11/29 07:13:39;;;;;;;;;;;;;;;5.08;69.78;101767.50;5112719;28;19937;-56
2022/11/29 07:16:07;;;;;;;;;;;;;;;5.07;69.63;101768.41;5105486;28;19919;-55
2022/11/29 07:18:46;;;;;;;;;;;;;;;5.05;69.82;101775.44;5111500;28;19912;-55
2022/11/29 07:21:17;;;;;;;;;;;;;;;5.06;70.10;101774.53;5108311;28;19924;-55
2022/11/29 07:24:09;;;;;;;;;;;;;;;5.03;70.10;101774.59;5108793;28;19931;-56
2022/11/29 07:26:43;;;;;;;;;;;;;;;5.02;69.90;101783.31;5062922;28;19916;-55
2022/11/29 07:29:22;;;;;;;;;;;;;;;4.96;70.00;101786.00;5103185;28;19924;-56
2022/11/29 07:31:50;;;;;;;;;;;;;;;4.95;69.89;101787.75;5103497;27;20034;-55
2022/11/29 07:34:16;;;;;;;;;;;;;;;4.98;69.92;101782.50;5100158;28;20460;-54
2022/11/29 07:37:10;;;;;;;;;;;;;;;5.01;70.36;101792.00;5093830;27;19915;-56
2022/11/29 07:39:55;;;;;;;;;;;;;;;5.02;70.01;101791.13;5095722;27;19919;-55
2022/11/29 07:42:20;;;;;;;;;;;;;;;5.01;69.65;101792.00;5108958;28;19920;-54
2022/11/29 07:44:48;;;;;;;;;;;;;;;5.03;69.71;101795.47;5095187;28;19927;-60
2022/11/29 07:47:14;;;;;;;;;;;;;;;5.01;70.15;101785.03;5099043;27;20056;-59
2022/11/29 07:49:39;;;;;;;;;;;;;;;5.01;70.22;101798.06;5100130;28;20386;-57
2022/11/29 07:52:04;;;;;;;;;;;;;;;5.04;69.78;101799.78;5103077;27;20028;-57
2022/11/29 07:54:30;;;;;;;;;;;;;;;5.06;70.09;101799.75;5114072;22;19928;-61
2022/11/29 07:56:55;;;;;;;;;;;;;;;5.04;69.84;101800.63;5102231;27;19935;-61
2022/11/29 07:59:20;;;;;;;;;;;;;;;5.10;70.03;101802.28;5086609;27;20027;-59
2022/11/29 08:01:46;;;;;;;;;;;;;;;5.10;70.01;101804.88;5107896;27;19927;-63
2022/11/29 08:04:11;;;;;;;;;;;;;;;5.12;69.94;101805.72;5090584;27;19988;-61
2022/11/29 08:06:36;;;;;;;;;;;;;;;5.15;69.97;101802.19;5098008;27;19930;-61
2022/11/29 08:09:02;;;;;;;;;;;;;;;5.16;69.83;101806.50;5099619;27;19947;-62
2022/11/29 08:11:28;;;;;;;;;;;;;;;5.18;69.98;101810.84;5103405;27;19919;-62
2022/11/29 08:13:57;;;;;;;;;;;;;;;5.23;69.89;101815.97;5104959;28;20298;-63
2022/11/29 08:16:22;;;;;;;;;;;;;;;5.19;69.97;101812.56;5107401;27;19915;-63
2022/11/29 08:18:47;;;;;;;;;;;;;;;5.22;69.86;101810.78;5110294;27;19998;-62
2022/11/29 08:21:16;;;;;;;;;;;;;;;5.25;69.30;101808.09;5096861;28;19916;-63
2022/11/29 08:23:42;;;;;;;;;;;;;;;5.26;69.27;101813.31;5108168;27;19916;-61
2022/11/29 08:26:07;;;;;;;;;;;;;;;5.23;69.08;101804.66;5109768;27;20355;-60
2022/11/29 08:28:32;;;;;;;;;;;;;;;5.26;69.25;101809.81;5108259;27;19919;-61
2022/11/29 08:31:02;;;;;;;;;;;;;;;5.27;68.92;101816.75;5110804;27;19996;-61
2022/11/29 08:33:28;;;;;;;;;;;;;;;5.26;68.82;101810.69;5092179;28;19985;-59
2022/11/29 08:35:53;;;;;;;;;;;;;;;5.29;68.83;101817.59;5106367;28;19928;-59
2022/11/29 08:38:18;;;;;;;;;;;;;;;5.31;69.03;101818.44;5112305;27;20387;-60
2022/11/29 08:40:43;;;;;;;;;;;;;;;5.28;68.94;101810.66;5109321;27;19942;-62
2022/11/29 08:43:09;;;;;;;;;;;;;;;5.32;68.65;101817.56;5108759;28;19972;-64
2022/11/29 08:45:34;;;;;;;;;;;;;;;5.35;69.04;101814.88;5110066;27;19918;-61
2022/11/29 08:47:59;;;;;;;;;;;;;;;5.37;68.96;101826.13;5108911;28;20354;-63
2022/11/29 08:50:25;;;;;;;;;;;;;;;5.36;68.77;101821.84;5101794;28;19920;-61
2022/11/29 08:55:41;;;;;;;;;;;;;;;5.40;68.69;101823.47;5104049;28;19968;-61
2022/11/29 08:58:08;;;;;;;;;;;;;;;5.41;68.73;101830.41;5106600;27;19931;-58
2022/11/29 09:00:33;;;;;;;;;;;;;;;5.45;68.67;101824.25;5108921;27;19964;-59
2022/11/29 09:03:58;;;;;;;;;;;;;;;5.50;68.48;101829.38;5089553;28;19923;-62
2022/11/29 09:05:45;;;;;;;;;;;;;;;5.42;68.50;101826.94;5108820;28;19920;-60
2022/11/29 09:08:10;;;;;;;;;;;;;;;5.45;68.82;101821.66;5087597;28;19961;-61
2022/11/29 09:10:37;;;;;;;;;;;;;;;5.45;68.67;101823.38;5109117;28;20484;-61
2022/11/29 09:13:02;;;;;;;;;;;;;;;5.46;68.98;101831.22;5110441;27;19915;-62
2022/11/29 09:15:28;;;;;;;;;;;;;;;5.49;68.79;101836.38;5111271;27;19918;-61
2022/11/29 09:17:53;;;;;;;;;;;;;;;5.53;68.83;101836.28;5110187;27;19912;-59
2022/11/29 09:20:18;;;;;;;;;;;;;;;5.52;68.65;101839.81;5098867;28;19916;-62
2022/11/29 09:22:44;;;;;;;;;;;;;;;5.54;68.41;101843.22;5110099;27;19920;-61
2022/11/29 09:25:09;;;;;;;;;;;;;;;5.55;68.52;101840.63;5106594;27;20042;-60
2022/11/29 09:27:34;;;;;;;;;;;;;;;5.57;68.58;101843.19;5106087;28;19926;-61
2022/11/29 09:30:00;;;;;;;;;;;;;;;5.56;68.85;101841.47;5111230;27;20348;-61
2022/11/29 09:32:25;;;;;;;;;;;;;;;5.53;68.45;101846.72;5118677;27;19924;-62
2022/11/29 09:34:50;;;;;;;;;;;;;;;5.57;68.29;101848.41;5108265;28;20382;-62
2022/11/29 09:37:16;;;;;;;;;;;;;;;5.58;68.63;101852.75;5115107;27;19962;-62
2022/11/29 09:39:41;;;;;;;;;;;;;;;5.63;68.42;101856.13;5116201;27;19912;-59
2022/11/29 09:42:13;;;;;;;;;;;;;;;5.62;68.41;101849.19;5092360;28;19924;-60
2022/11/29 09:44:58;;;;;;;;;;;;;;;5.61;68.64;101860.53;5109498;28;19912;-62
2022/11/29 09:47:42;;;;;;;;;;;;;;;5.59;68.35;101859.69;5113216;27;19922;-61
2022/11/29 09:50:16;;;;;;;;;;;;;;;5.57;68.69;101864.94;5105727;28;19916;-61
2022/11/29 09:52:56;;;;;;;;;;;;;;;5.56;68.49;101870.19;5106037;28;20400;-60
2022/11/29 09:55:35;;;;;;;;;;;;;;;5.58;68.61;101863.19;5111226;27;20214;-59
2022/11/29 09:58:02;;;;;;;;;;;;;;;5.56;68.57;101857.13;5105251;28;19992;-63
2022/11/29 10:00:29;;;;;;;;;;;;;;;5.58;68.75;101868.41;5111061;28;20363;-62
2022/11/29 10:03:07;;;;;;;;;;;;;;;5.59;68.76;101867.53;5110095;27;19920;-62
2022/11/29 10:05:55;;;;;;;;;;;;;;;5.62;68.47;101868.31;5092538;28;19923;-64
2022/11/29 10:08:31;;;;;;;;;;;;;;;5.70;68.57;101876.00;5078172;28;19912;-65
2022/11/29 10:11:05;;;;;;;;;;;;;;;5.71;68.09;101869.06;5106207;28;20394;-64
2022/11/29 10:13:33;;;;;;;;;;;;;;;5.74;68.25;101869.84;5105084;27;19912;-62
2022/11/29 10:16:05;;;;;;;;;;;;;;;5.70;68.33;101876.00;5110506;27;20429;-62
2022/11/29 10:18:37;;;;;;;;;;;;;;;5.67;68.13;101876.09;5106795;27;19935;-62
2022/11/29 10:21:22;;;;;;;;;;;;;;;5.69;68.41;101874.28;5109173;27;19924;-63
2022/11/29 10:23:51;;;;;;;;;;;;;;;5.73;68.06;101875.94;5109231;27;19915;-63
2022/11/29 10:26:17;;;;;;;;;;;;;;;5.75;68.10;101879.41;5105880;28;19912;-62
2022/11/29 10:28:44;;;;;;;;;;;;;;;5.78;68.00;101868.91;5105783;27;21219;-63
2022/11/29 10:31:15;;;;;;;;;;;;;;;5.85;68.21;101873.97;5112921;27;19969;-64
2022/11/29 10:33:40;;;;;;;;;;;;;;;5.85;68.11;101884.44;5106270;28;19911;-60
2022/11/29 10:36:15;;;;;;;;;;;;;;;5.88;67.77;101880.03;5107428;28;20409;-62
2022/11/29 10:38:42;;;;;;;;;;;;;;;5.89;68.02;101871.31;5109775;28;20302;-62
2022/11/29 10:41:09;;;;;;;;;;;;;;;5.90;67.96;101877.38;5110259;27;19915;-60
2022/11/29 10:43:36;;;;;;;;;;;;;;;5.94;67.63;101879.03;5110387;28;19972;-64
2022/11/29 10:46:02;;;;;;;;;;;;;;;5.97;67.85;101873.75;5106989;28;19938;-62
2022/11/29 10:48:30;;;;;;;;;;;;;;;5.99;67.83;101871.94;5101920;28;19960;-62
2022/11/29 10:50:56;;;;;;;;;;;;;;;6.02;67.80;101869.31;5109307;28;19923;-63
2022/11/29 10:53:23;;;;;;;;;;;;;;;6.07;67.77;101870.09;5106484;28;20409;-62
2022/11/29 10:55:59;;;;;;;;;;;;;;;6.05;67.59;101873.63;5107832;28;19922;-61
2022/11/29 10:58:25;;;;;;;;;;;;;;;6.03;68.02;101868.44;5110525;28;19916;-61
2022/11/29 11:00:53;;;;;;;;;;;;;;;6.03;68.16;101865.81;5119640;27;19919;-63
2022/11/29 11:03:38;;;;;;;;;;;;;;;6.08;68.05;101861.38;5121605;27;20393;-62
2022/11/29 11:06:09;;;;;;;;;;;;;;;6.14;67.90;101865.59;5109979;28;19930;-63
2022/11/29 11:08:36;;;;;;;;;;;;;;;6.15;67.49;101866.44;5109254;27;20340;-63
2022/11/29 11:11:03;;;;;;;;;;;;;;;6.16;67.62;101865.56;5108896;27;20310;-59
2022/11/29 11:13:29;;;;;;;;;;;;;;;6.15;67.69;101866.44;5112723;27;19912;-60
2022/11/29 11:16:07;;;;;;;;;;;;;;;6.18;67.59;101864.66;5111678;27;20385;-64
2022/11/29 11:18:33;;;;;;;;;;;;;;;6.22;67.45;101865.44;5117605;27;19911;-64
2022/11/29 11:21:00;;;;;;;;;;;;;;;6.24;67.22;101858.44;5112236;27;20024;-61
2022/11/29 11:23:30;;;;;;;;;;;;;;;6.24;67.05;101863.66;5107425;28;19928;-61
2022/11/29 11:26:03;;;;;;;;;;;;;;;6.24;66.94;101866.28;5106244;27;19980;-61
2022/11/29 11:28:31;;;;;;;;;;;;;;;6.29;66.97;101869.63;5090606;28;20022;-58
2022/11/29 11:31:00;;;;;;;;;;;;;;;6.33;66.89;101866.06;5104863;28;19927;-62
2022/11/29 11:33:28;;;;;;;;;;;;;;;6.34;66.83;101862.53;5110822;28;19964;-62
2022/11/29 11:36:12;;;;;;;;;;;;;;;6.32;66.84;101869.56;5112157;27;19924;-59
2022/11/29 11:38:48;;;;;;;;;;;;;;;6.30;66.75;101871.34;5094145;28;19924;-65
2022/11/29 11:41:20;;;;;;;;;;;;;;;6.32;66.85;101874.78;5107008;28;19969;-64
2022/11/29 11:43:50;;;;;;;;;;;;;;;6.36;66.51;101878.19;5091605;28;20091;-62
2022/11/29 11:46:16;;;;;;;;;;;;;;;6.34;66.77;101873.00;5114974;27;19937;-63
2022/11/29 11:48:41;;;;;;;;;;;;;;;6.35;66.71;101873.88;5100564;28;19928;-62
2022/11/29 11:51:12;;;;;;;;;;;;;;;6.38;66.49;101873.78;5115327;27;19983;-63
2022/11/29 11:53:38;;;;;;;;;;;;;;;6.39;66.58;101872.91;5107374;28;20426;-62
2022/11/29 11:56:08;;;;;;;;;;;;;;;6.36;66.24;101871.22;5118512;27;21259;-59
2022/11/29 11:58:36;;;;;;;;;;;;;;;6.41;66.83;101878.97;5106213;28;19924;-60
2022/11/29 12:01:11;;;;;;;;;;;;;;;6.42;66.59;101879.84;5111782;27;20406;-59
2022/11/29 12:03:39;;;;;;;;;;;;;;;6.45;66.92;101887.59;5108999;27;20428;-59
2022/11/29 12:06:13;;;;;;;;;;;;;;;6.46;66.87;101881.47;5124239;27;19922;-64
2022/11/29 12:08:39;;;;;;;;;;;;;;;6.47;66.66;101885.81;5119920;27;19916;-62
2022/11/29 12:11:06;;;;;;;;;;;;;;;6.48;66.44;101882.28;5114662;27;19923;-59
2022/11/29 12:13:34;;;;;;;;;;;;;;;6.47;66.46;101893.66;5105552;27;19957;-62
2022/11/29 12:16:03;;;;;;;;;;;;;;;6.48;66.25;101890.13;5107359;27;19912;-63
2022/11/29 12:18:43;;;;;;;;;;;;;;;6.49;66.33;101891.88;5109321;27;19920;-62
2022/11/29 12:21:12;;;;;;;;;;;;;;;6.49;66.72;101892.75;5092481;28;19966;-63
2022/11/29 12:23:43;;;;;;;;;;;;;;;6.52;66.42;101891.81;5109187;27;19915;-62
2022/11/29 12:26:13;;;;;;;;;;;;;;;6.54;66.34;101892.63;5108973;27;20370;-61
2022/11/29 12:28:40;;;;;;;;;;;;;;;6.54;66.22;101895.25;5108339;27;19962;-61
2022/11/29 12:31:11;;;;;;;;;;;;;;;6.51;66.11;101900.53;5123728;27;19941;-63
2022/11/29 12:33:39;;;;;;;;;;;;;;;6.50;66.68;101893.59;5114140;27;19916;-62
2022/11/29 12:36:04;;;;;;;;;;;;;;;6.47;66.74;101891.03;5092495;28;19912;-61
2022/11/29 12:38:29;;;;;;;;;;;;;;;6.47;66.75;101884.06;5116100;27;19919;-65
2022/11/29 12:41:13;;;;;;;;;;;;;;;6.49;66.77;101886.63;5102940;27;19975;-64
2022/11/29 12:43:52;;;;;;;;;;;;;;;6.52;66.67;101891.81;5106042;27;20446;-61
2022/11/29 12:46:20;;;;;;;;;;;;;;;6.52;66.56;101897.03;5112385;27;20003;-61
2022/11/29 12:48:56;;;;;;;;;;;;;;;6.53;66.54;101891.75;5099790;28;20014;-61
2022/11/29 12:51:26;;;;;;;;;;;;;;;6.54;66.17;101897.88;5107570;28;20359;-63
2022/11/29 12:54:15;;;;;;;;;;;;;;;6.56;66.23;101906.53;5089334;28;20018;-61
2022/11/29 12:56:48;;;;;;;;;;;;;;;6.56;66.25;101912.63;5090966;28;19915;-63
2022/11/29 12:59:52;;;;;;;;;;;;;;;6.58;66.12;101909.09;5077146;28;24653;-64
2022/11/29 13:02:36;;;;;;;;;;;;;;;6.53;66.24;101915.28;5012342;28;19936;-63
2022/11/29 13:05:13;;;;;;;;;;;;;;;6.49;66.41;101916.28;5018598;28;19963;-61
2022/11/29 13:07:49;;;;;;;;;;;;;;;6.47;66.56;101918.06;5079135;27;19926;-63
2022/11/29 13:10:44;;;;;;;;;;;;;;;6.49;66.55;101925.84;5089961;27;19928;-64